createdAt,value
2023-05-22T06:56:53.886Z,18.50
2023-05-22T06:59:22.063Z,18.30
2023-05-22T07:01:50.134Z,18.20
2023-05-22T07:04:18.110Z,18.30
2023-05-22T07:06:46.280Z,18.30
2023-05-22T07:09:15.466Z,18.40
2023-05-22T07:11:43.995Z,18.40
2023-05-22T07:14:13.593Z,18.40
2023-05-22T07:16:41.815Z,18.50
2023-05-22T07:19:11.913Z,18.50
2023-05-22T07:21:39.938Z,18.50
2023-05-22T07:24:09.148Z,18.60
2023-05-22T07:26:37.454Z,18.60
2023-05-22T07:29:05.872Z,18.60
2023-05-22T07:31:35.474Z,18.60
2023-05-22T07:34:03.611Z,18.60
2023-05-22T07:36:32.030Z,18.70
2023-05-22T07:38:59.975Z,18.70
2023-05-22T07:41:28.239Z,18.70
2023-05-22T07:43:56.175Z,18.80
2023-05-22T07:46:24.115Z,18.80
2023-05-22T07:48:53.378Z,18.80
2023-05-22T07:51:21.251Z,18.80
2023-05-22T07:53:49.154Z,18.80
2023-05-22T07:56:17.673Z,18.80
2023-05-22T07:58:48.074Z,18.80
2023-05-22T08:01:16.543Z,18.90
2023-05-22T08:03:44.720Z,18.90
2023-05-22T08:06:15.881Z,18.90
2023-05-22T08:08:43.759Z,19.00
2023-05-22T08:11:11.716Z,19.00
2023-05-22T08:13:39.584Z,19.00
2023-05-22T08:16:08.406Z,18.90
2023-05-22T08:18:36.404Z,19.00
2023-05-22T08:21:04.383Z,19.00
2023-05-22T08:23:36.301Z,19.10
2023-05-22T08:26:04.589Z,19.00
2023-05-22T08:28:32.500Z,19.10
2023-05-22T08:31:00.451Z,19.10
2023-05-22T08:33:28.350Z,19.20
2023-05-22T08:35:56.300Z,19.30
2023-05-22T08:38:24.399Z,19.20
2023-05-22T08:40:55.537Z,19.20
2023-05-22T08:43:23.525Z,19.30
2023-05-22T08:45:57.883Z,19.30
2023-05-22T08:48:28.135Z,19.30
2023-05-22T08:50:58.495Z,19.40
2023-05-22T08:53:30.127Z,19.40
2023-05-22T08:55:59.798Z,19.40
2023-05-22T08:58:28.684Z,19.40
2023-05-22T09:00:57.991Z,19.50
2023-05-22T09:03:28.730Z,19.50
2023-05-22T09:05:58.425Z,19.50
2023-05-22T09:08:27.147Z,19.60
2023-05-22T09:10:56.306Z,19.60
2023-05-22T09:13:30.115Z,19.60
2023-05-22T09:16:08.603Z,19.70
2023-05-22T09:18:37.995Z,19.70
2023-05-22T09:21:17.741Z,19.70
2023-05-22T09:23:55.176Z,19.70
2023-05-22T09:26:23.400Z,19.70
2023-05-22T09:28:52.696Z,19.80
2023-05-22T09:31:21.080Z,19.80
2023-05-22T09:33:49.771Z,19.70
2023-05-22T09:36:18.134Z,19.90
2023-05-22T09:38:46.532Z,19.90
2023-05-22T09:41:14.721Z,20.00
2023-05-22T09:43:52.246Z,19.90
2023-05-22T09:46:20.232Z,20.00
2023-05-22T09:48:52.838Z,20.10
2023-05-22T09:51:23.857Z,20.10
2023-05-22T09:53:52.745Z,20.10
2023-05-22T09:56:35.262Z,20.20
2023-05-22T09:59:10.474Z,20.20
2023-05-22T10:01:40.114Z,20.20
2023-05-22T10:04:14.307Z,20.30
2023-05-22T10:06:44.303Z,20.30
2023-05-22T10:09:19.521Z,20.30
2023-05-22T10:11:48.584Z,20.40
2023-05-22T10:14:18.352Z,20.40
2023-05-22T10:16:46.918Z,20.50
2023-05-22T10:19:15.410Z,20.50
2023-05-22T10:21:43.806Z,20.50
2023-05-22T10:24:12.426Z,20.50
2023-05-22T10:26:41.088Z,20.50
2023-05-22T10:29:13.042Z,20.60
2023-05-22T10:31:48.750Z,20.60
2023-05-22T10:34:30.070Z,20.70
2023-05-22T10:37:18.022Z,20.70
2023-05-22T10:39:57.144Z,20.80
2023-05-22T10:42:25.172Z,20.70
2023-05-22T10:44:54.553Z,20.80
